Time;durP1;ratioP1;P1;durP2;ratioP2;P2;SDS_P1;SDS_P2;PMS_P1;PMS_P2;Temp;Humidity;BMP_temperature;BMP_pressure;BME280_temperature;BME280_humidity;BME280_pressure;Samples;Min_cycle;Max_cycle;Signal;HPM_P1;HPM_P2
2021/05/01 00:00:21;;;;;;;78.78;27.17;;;;;;;;;;4944476;28;20039;-62
2021/05/01 00:02:49;;;;;;;80.28;26.98;;;;;;;;;;4931475;28;20047;-62
2021/05/01 00:05:17;;;;;;;75.75;25.35;;;;;;;;;;4915493;28;20043;-62
2021/05/01 00:07:43;;;;;;;68.70;25.27;;;;;;;;;;4930626;28;22036;-62
2021/05/01 00:10:11;;;;;;;87.10;28.52;;;;;;;;;;4929820;28;20656;-62
2021/05/01 00:12:40;;;;;;;86.40;30.67;;;;;;;;;;4928268;28;20023;-62
2021/05/01 00:15:07;;;;;;;61.53;27.02;;;;;;;;;;4930935;28;20039;-62
2021/05/01 00:17:32;;;;;;;73.05;26.52;;;;;;;;;;4912660;28;20039;-61
2021/05/01 00:19:58;;;;;;;66.75;25.98;;;;;;;;;;4929996;28;20039;-61
2021/05/01 00:22:23;;;;;;;68.55;26.65;;;;;;;;;;4929092;28;20043;-62
2021/05/01 00:24:52;;;;;;;73.57;26.35;;;;;;;;;;4928188;28;20574;-61
2021/05/01 00:27:17;;;;;;;60.88;25.35;;;;;;;;;;4914293;28;20046;-62
2021/05/01 00:29:45;;;;;;;83.97;28.40;;;;;;;;;;4931440;28;20027;-62
2021/05/01 00:32:14;;;;;;;71.07;26.75;;;;;;;;;;4927994;28;20243;-62
2021/05/01 00:34:40;;;;;;;72.38;26.60;;;;;;;;;;4931746;28;20111;-62
2021/05/01 00:37:08;;;;;;;71.72;26.35;;;;;;;;;;4927485;28;20039;-63
2021/05/01 00:39:36;;;;;;;77.05;26.67;;;;;;;;;;4915529;28;20035;-63
2021/05/01 00:42:04;;;;;;;77.90;26.42;;;;;;;;;;4929820;28;20102;-61
2021/05/01 00:44:30;;;;;;;69.35;27.08;;;;;;;;;;4948310;28;20947;-61
2021/05/01 00:46:55;;;;;;;75.53;25.85;;;;;;;;;;4929434;28;20046;-62
2021/05/01 00:49:21;;;;;;;72.85;27.55;;;;;;;;;;4928450;28;20039;-62
2021/05/01 00:51:47;;;;;;;70.57;26.83;;;;;;;;;;4928891;28;20121;-62
2021/05/01 00:54:15;;;;;;;68.05;25.77;;;;;;;;;;4927309;28;20688;-63
2021/05/01 00:56:41;;;;;;;56.20;24.42;;;;;;;;;;4910879;28;20035;-61
2021/05/01 00:59:09;;;;;;;60.25;24.02;;;;;;;;;;4911804;28;20616;-63
2021/05/01 01:01:36;;;;;;;62.95;22.67;;;;;;;;;;4928190;28;20048;-62
2021/05/01 01:04:02;;;;;;;51.75;21.60;;;;;;;;;;4913807;28;20035;-62
2021/05/01 01:06:29;;;;;;;56.25;23.63;;;;;;;;;;4912383;28;20066;-62
2021/05/01 01:08:57;;;;;;;50.40;22.80;;;;;;;;;;4913260;28;20035;-62
2021/05/01 01:11:24;;;;;;;56.30;23.50;;;;;;;;;;4912372;28;20043;-62
2021/05/01 01:13:52;;;;;;;47.67;21.20;;;;;;;;;;4944042;28;20038;-61
2021/05/01 01:16:18;;;;;;;43.33;20.40;;;;;;;;;;4948417;28;20038;-61
2021/05/01 01:18:43;;;;;;;48.97;21.10;;;;;;;;;;4928935;28;20039;-62
2021/05/01 01:21:12;;;;;;;52.50;21.08;;;;;;;;;;4928141;28;20038;-62
2021/05/01 01:23:41;;;;;;;44.35;18.90;;;;;;;;;;4929148;28;20039;-61
2021/05/01 01:26:07;;;;;;;49.70;21.90;;;;;;;;;;4925525;28;20097;-62
2021/05/01 01:28:33;;;;;;;46.58;19.98;;;;;;;;;;4941898;28;20771;-61
2021/05/01 01:30:59;;;;;;;47.83;20.95;;;;;;;;;;4930280;28;20038;-62
2021/05/01 01:33:24;;;;;;;41.92;19.25;;;;;;;;;;4896176;28;20031;-61
2021/05/01 01:35:50;;;;;;;45.85;19.67;;;;;;;;;;4928528;28;20531;-62
2021/05/01 01:38:18;;;;;;;44.45;18.90;;;;;;;;;;4928401;28;21466;-63
2021/05/01 01:40:46;;;;;;;43.42;18.73;;;;;;;;;;4938131;28;20454;-62
2021/05/01 01:43:12;;;;;;;52.95;20.67;;;;;;;;;;4921501;28;20043;-62
2021/05/01 01:45:38;;;;;;;52.72;20.13;;;;;;;;;;4928486;28;20047;-62
2021/05/01 01:48:04;;;;;;;47.65;18.65;;;;;;;;;;4912587;28;20086;-62
2021/05/01 01:50:30;;;;;;;45.30;18.73;;;;;;;;;;4929632;28;20027;-62
2021/05/01 01:52:55;;;;;;;48.88;19.50;;;;;;;;;;4923118;28;20758;-62
2021/05/01 01:55:21;;;;;;;47.25;19.77;;;;;;;;;;4896835;28;20550;-62
2021/05/01 01:57:47;;;;;;;53.95;20.05;;;;;;;;;;4942534;28;20440;-62
2021/05/01 02:00:17;;;;;;;41.38;18.33;;;;;;;;;;4928965;28;20027;-63
2021/05/01 02:02:44;;;;;;;44.60;18.13;;;;;;;;;;4907922;28;20127;-62
2021/05/01 02:05:15;;;;;;;51.55;21.33;;;;;;;;;;4928141;28;20027;-62
2021/05/01 02:07:43;;;;;;;47.03;19.77;;;;;;;;;;4928703;28;20071;-62
2021/05/01 02:10:15;;;;;;;49.83;19.98;;;;;;;;;;4927639;28;20039;-63
2021/05/01 02:12:41;;;;;;;52.15;21.58;;;;;;;;;;4942331;28;20031;-62
2021/05/01 02:15:13;;;;;;;53.78;21.80;;;;;;;;;;4928934;28;20046;-62
2021/05/01 02:17:43;;;;;;;47.70;20.13;;;;;;;;;;4946479;28;20042;-62
2021/05/01 02:20:10;;;;;;;52.88;20.45;;;;;;;;;;4929783;28;20098;-62
2021/05/01 02:22:38;;;;;;;47.70;19.52;;;;;;;;;;4926747;28;20826;-62
2021/05/01 02:25:08;;;;;;;48.83;19.60;;;;;;;;;;4912808;28;20379;-63
2021/05/01 02:27:35;;;;;;;49.75;19.75;;;;;;;;;;4917301;28;20131;-63
2021/05/01 02:30:24;;;;;;;45.83;19.83;;;;;;;;;;4924414;28;20553;-62
2021/05/01 02:32:49;;;;;;;;;;;;;;;;;;4911018;28;20032;-62
2021/05/01 02:35:23;;;;;;;42.25;17.85;;;;;;;;;;4945888;28;20491;-63
2021/05/01 02:37:49;;;;;;;46.90;18.77;;;;;;;;;;4926680;28;20031;-62
2021/05/01 02:40:16;;;;;;;53.58;20.98;;;;;;;;;;4928093;28;20027;-62
2021/05/01 02:42:42;;;;;;;56.08;19.20;;;;;;;;;;4907569;28;20031;-63
2021/05/01 02:45:12;;;;;;;56.58;21.65;;;;;;;;;;4920226;28;20035;-63
2021/05/01 02:47:41;;;;;;;53.35;22.25;;;;;;;;;;4927636;28;20134;-62
2021/05/01 02:50:07;;;;;;;58.47;22.05;;;;;;;;;;4912543;28;20589;-62
2021/05/01 02:52:35;;;;;;;61.45;23.75;;;;;;;;;;4946475;28;20035;-62
2021/05/01 02:55:01;;;;;;;58.30;23.42;;;;;;;;;;4928970;28;20035;-62
2021/05/01 02:57:30;;;;;;;54.33;23.05;;;;;;;;;;4942335;28;20059;-63
2021/05/01 03:00:01;;;;;;;57.55;21.65;;;;;;;;;;4908627;28;20098;-63
2021/05/01 03:02:27;;;;;;;65.25;22.30;;;;;;;;;;4909545;28;20041;-62
2021/05/01 03:04:52;;;;;;;50.90;22.05;;;;;;;;;;4912123;28;20030;-62
2021/05/01 03:07:18;;;;;;;55.65;20.23;;;;;;;;;;4912954;28;20479;-62
2021/05/01 03:09:43;;;;;;;59.28;22.15;;;;;;;;;;4942133;28;20026;-63
2021/05/01 03:12:09;;;;;;;57.47;21.80;;;;;;;;;;4926254;28;20380;-62
2021/05/01 03:14:34;;;;;;;60.22;21.80;;;;;;;;;;4930123;28;20525;-63
2021/05/01 03:17:00;;;;;;;57.53;21.42;;;;;;;;;;4930853;28;20040;-62
2021/05/01 03:19:28;;;;;;;54.85;21.38;;;;;;;;;;4931487;28;20032;-62
2021/05/01 03:21:53;;;;;;;64.32;22.60;;;;;;;;;;4923069;28;20865;-63
2021/05/01 03:24:21;;;;;;;52.35;21.40;;;;;;;;;;4931568;28;20027;-63
2021/05/01 03:26:51;;;;;;;60.15;22.95;;;;;;;;;;4912271;28;20031;-62
2021/05/01 03:29:16;;;;;;;59.08;23.10;;;;;;;;;;4898693;28;20880;-63
2021/05/01 03:31:44;;;;;;;61.53;23.67;;;;;;;;;;4909387;28;20031;-63
2021/05/01 03:34:10;;;;;;;68.38;22.63;;;;;;;;;;4915813;28;20039;-62
2021/05/01 03:36:38;;;;;;;63.42;22.23;;;;;;;;;;4945424;28;20086;-64
2021/05/01 03:39:09;;;;;;;57.72;21.73;;;;;;;;;;4931380;28;20031;-64
2021/05/01 03:41:34;;;;;;;58.97;20.85;;;;;;;;;;4947355;28;20039;-63
2021/05/01 03:44:00;;;;;;;62.38;23.10;;;;;;;;;;4926031;28;20081;-64
2021/05/01 03:46:26;;;;;;;59.65;20.17;;;;;;;;;;4946720;28;20039;-63
2021/05/01 03:48:52;;;;;;;57.40;21.58;;;;;;;;;;4926157;28;21751;-62
2021/05/01 03:51:18;;;;;;;51.50;20.40;;;;;;;;;;4930823;28;20031;-64
2021/05/01 03:53:43;;;;;;;63.47;21.80;;;;;;;;;;4949702;28;20050;-64
2021/05/01 03:56:14;;;;;;;66.72;23.35;;;;;;;;;;4929801;28;20062;-63
2021/05/01 03:58:40;;;;;;;58.10;21.70;;;;;;;;;;4915037;28;20039;-62
2021/05/01 04:01:06;;;;;;;62.70;22.27;;;;;;;;;;4914878;28;20067;-64
2021/05/01 04:03:32;;;;;;;67.10;23.38;;;;;;;;;;4914587;28;20031;-62
2021/05/01 04:06:00;;;;;;;58.28;23.42;;;;;;;;;;4943042;28;20122;-63
2021/05/01 04:08:26;;;;;;;60.05;24.33;;;;;;;;;;4928289;28;20382;-63
2021/05/01 04:10:52;;;;;;;71.63;23.95;;;;;;;;;;4914088;28;20031;-64
2021/05/01 04:13:17;;;;;;;63.15;23.40;;;;;;;;;;4943838;28;20024;-63
2021/05/01 04:15:45;;;;;;;85.57;26.48;;;;;;;;;;4929029;28;20054;-63
2021/05/01 04:18:13;;;;;;;73.63;25.60;;;;;;;;;;4930338;28;20121;-62
2021/05/01 04:20:44;;;;;;;74.90;27.52;;;;;;;;;;4930164;28;20039;-63
2021/05/01 04:23:14;;;;;;;65.38;26.15;;;;;;;;;;4928434;28;20045;-63
2021/05/01 04:25:42;;;;;;;65.45;23.70;;;;;;;;;;4930341;28;20050;-63
2021/05/01 04:28:10;;;;;;;71.22;24.90;;;;;;;;;;4925922;28;20058;-63
2021/05/01 04:30:35;;;;;;;57.72;23.50;;;;;;;;;;4914414;28;20027;-64
2021/05/01 04:33:01;;;;;;;70.63;24.63;;;;;;;;;;4928803;28;20204;-63
2021/05/01 04:35:29;;;;;;;59.13;23.95;;;;;;;;;;4930359;28;22030;-64
2021/05/01 04:37:54;;;;;;;55.45;23.25;;;;;;;;;;4912908;28;20086;-64
2021/05/01 04:40:19;;;;;;;63.92;24.08;;;;;;;;;;4930265;28;20722;-63
2021/05/01 04:42:50;;;;;;;59.72;23.58;;;;;;;;;;4930568;28;20035;-64
2021/05/01 04:45:21;;;;;;;59.20;25.13;;;;;;;;;;4913308;28;20027;-63
2021/05/01 04:47:47;;;;;;;66.82;24.15;;;;;;;;;;4929513;28;20031;-62
2021/05/01 04:50:13;;;;;;;62.38;23.23;;;;;;;;;;4948958;28;20054;-64
2021/05/01 04:52:41;;;;;;;54.53;23.13;;;;;;;;;;4920211;28;20242;-63
2021/05/01 04:55:17;;;;;;;57.03;22.60;;;;;;;;;;4928422;28;20519;-64
2021/05/01 04:57:45;;;;;;;53.10;22.25;;;;;;;;;;4913357;28;20069;-63
2021/05/01 05:00:14;;;;;;;52.78;22.40;;;;;;;;;;4944733;28;20042;-64
2021/05/01 05:02:41;;;;;;;52.60;21.75;;;;;;;;;;4928410;28;20035;-64
2021/05/01 05:05:08;;;;;;;53.42;22.65;;;;;;;;;;4926723;28;20086;-64
2021/05/01 05:07:34;;;;;;;51.33;21.90;;;;;;;;;;4929597;28;20141;-64
2021/05/01 05:10:03;;;;;;;43.28;21.25;;;;;;;;;;4909545;28;20046;-64
2021/05/01 05:12:29;;;;;;;43.45;19.35;;;;;;;;;;4927958;28;20469;-64
2021/05/01 05:14:54;;;;;;;51.72;21.80;;;;;;;;;;4943747;28;20047;-64
2021/05/01 05:17:20;;;;;;;42.78;20.23;;;;;;;;;;4947009;28;20041;-64
2021/05/01 05:19:45;;;;;;;37.13;20.33;;;;;;;;;;4929498;28;20039;-65
2021/05/01 05:22:11;;;;;;;40.35;20.23;;;;;;;;;;4909226;28;20028;-65
2021/05/01 05:24:42;;;;;;;38.58;20.15;;;;;;;;;;4928589;28;20023;-64
2021/05/01 05:27:07;;;;;;;41.67;20.67;;;;;;;;;;4909457;28;20050;-64
2021/05/01 05:29:33;;;;;;;41.90;20.23;;;;;;;;;;4944574;28;20031;-65
2021/05/01 05:32:00;;;;;;;38.42;20.50;;;;;;;;;;4927730;28;20032;-64
2021/05/01 05:34:26;;;;;;;39.78;19.95;;;;;;;;;;4943536;28;20490;-63
2021/05/01 05:36:56;;;;;;;36.10;18.77;;;;;;;;;;4922884;28;20068;-62
2021/05/01 05:39:21;;;;;;;38.72;20.73;;;;;;;;;;4923750;28;20078;-65
2021/05/01 05:41:47;;;;;;;41.95;19.02;;;;;;;;;;4926837;28;20023;-64
2021/05/01 05:44:12;;;;;;;31.10;18.00;;;;;;;;;;4914198;28;20664;-63
2021/05/01 05:46:41;;;;;;;33.20;17.65;;;;;;;;;;4927433;28;20046;-63
2021/05/01 05:49:08;;;;;;;30.23;17.70;;;;;;;;;;4928184;28;20030;-64
2021/05/01 05:51:34;;;;;;;26.90;15.20;;;;;;;;;;4920030;28;20027;-65
2021/05/01 05:54:02;;;;;;;25.85;14.35;;;;;;;;;;4911648;28;20109;-64
2021/05/01 05:56:28;;;;;;;26.75;15.10;;;;;;;;;;4922854;28;20142;-63
2021/05/01 05:58:55;;;;;;;26.38;13.65;;;;;;;;;;4925725;28;20039;-65
2021/05/01 06:01:29;;;;;;;24.15;13.95;;;;;;;;;;4927361;28;20087;-63
2021/05/01 06:03:55;;;;;;;24.33;13.88;;;;;;;;;;4928642;28;20046;-64
2021/05/01 06:06:31;;;;;;;19.40;11.90;;;;;;;;;;4927488;28;20030;-64
2021/05/01 06:08:57;;;;;;;20.48;12.75;;;;;;;;;;4920890;28;21126;-65
2021/05/01 06:11:25;;;;;;;20.10;11.45;;;;;;;;;;4924813;28;20055;-64
2021/05/01 06:13:51;;;;;;;19.92;11.77;;;;;;;;;;4940340;28;20158;-64
2021/05/01 06:16:19;;;;;;;16.98;11.15;;;;;;;;;;4926488;28;20030;-63
2021/05/01 06:18:47;;;;;;;17.40;11.00;;;;;;;;;;4940475;28;20151;-64
2021/05/01 06:21:13;;;;;;;17.88;10.65;;;;;;;;;;4927320;28;20569;-64
2021/05/01 06:23:40;;;;;;;14.93;9.63;;;;;;;;;;4929722;28;20031;-62
2021/05/01 06:26:06;;;;;;;13.23;8.88;;;;;;;;;;4928208;28;20047;-63
2021/05/01 06:28:33;;;;;;;14.02;9.40;;;;;;;;;;4926875;28;20989;-64
2021/05/01 06:31:05;;;;;;;12.82;8.13;;;;;;;;;;4925722;28;20169;-63
2021/05/01 06:33:31;;;;;;;12.60;8.00;;;;;;;;;;4930177;28;20133;-63
2021/05/01 06:35:57;;;;;;;11.48;6.45;;;;;;;;;;4923719;28;20039;-64
2021/05/01 06:38:26;;;;;;;11.65;6.40;;;;;;;;;;4925619;28;20172;-63
2021/05/01 06:40:56;;;;;;;8.68;6.18;;;;;;;;;;4920400;28;20065;-63
2021/05/01 06:43:45;;;;;;;8.95;5.75;;;;;;;;;;4926168;28;20048;-63
2021/05/01 06:46:14;;;;;;;9.60;6.45;;;;;;;;;;4928785;28;20046;-63
2021/05/01 06:48:40;;;;;;;8.35;5.50;;;;;;;;;;4947096;28;20247;-64
2021/05/01 06:51:06;;;;;;;8.60;5.88;;;;;;;;;;4930777;28;20035;-63
2021/05/01 06:53:34;;;;;;;9.52;6.75;;;;;;;;;;4914310;28;20465;-62
2021/05/01 06:56:04;;;;;;;9.68;6.30;;;;;;;;;;4943844;28;20051;-63
2021/05/01 06:58:31;;;;;;;7.75;5.70;;;;;;;;;;4931363;28;20039;-63
2021/05/01 07:01:03;;;;;;;9.60;5.28;;;;;;;;;;4923713;28;20050;-63
2021/05/01 07:03:31;;;;;;;6.85;5.20;;;;;;;;;;4949324;28;20482;-63
2021/05/01 07:06:00;;;;;;;8.40;5.13;;;;;;;;;;4930678;28;20035;-63
2021/05/01 07:08:26;;;;;;;9.05;4.90;;;;;;;;;;4912763;28;20045;-63
2021/05/01 07:10:52;;;;;;;11.07;5.38;;;;;;;;;;4913224;28;20042;-63
2021/05/01 07:13:18;;;;;;;5.95;4.60;;;;;;;;;;4948978;28;21577;-64
2021/05/01 07:15:44;;;;;;;4.45;4.00;;;;;;;;;;4945719;28;20604;-63
2021/05/01 07:18:10;;;;;;;6.28;4.32;;;;;;;;;;4929087;28;20325;-63
2021/05/01 07:20:36;;;;;;;6.47;3.97;;;;;;;;;;4929546;28;20039;-61
2021/05/01 07:23:03;;;;;;;6.15;4.13;;;;;;;;;;4947066;28;20771;-63
2021/05/01 07:25:29;;;;;;;5.18;3.97;;;;;;;;;;4931539;28;20031;-64
2021/05/01 07:27:59;;;;;;;5.72;4.10;;;;;;;;;;4930276;28;20074;-63
2021/05/01 07:30:31;;;;;;;5.65;4.25;;;;;;;;;;4927364;28;20081;-64
2021/05/01 07:33:09;;;;;;;4.78;3.40;;;;;;;;;;4925729;28;20035;-63
2021/05/01 07:35:37;;;;;;;6.40;4.07;;;;;;;;;;4929246;28;20143;-62
2021/05/01 07:38:10;;;;;;;6.53;4.80;;;;;;;;;;4926670;28;21190;-63
2021/05/01 07:40:36;;;;;;;4.43;4.03;;;;;;;;;;4930795;28;20028;-63
2021/05/01 07:43:03;;;;;;;7.10;4.93;;;;;;;;;;4929140;28;20140;-63
2021/05/01 07:45:36;;;;;;;7.13;4.70;;;;;;;;;;4928239;28;20035;-63
2021/05/01 07:48:08;;;;;;;6.43;4.63;;;;;;;;;;4930955;28;20557;-64
2021/05/01 07:50:35;;;;;;;6.15;4.65;;;;;;;;;;4945294;28;20039;-63
2021/05/01 07:53:02;;;;;;;8.30;5.32;;;;;;;;;;4930733;28;20055;-64
2021/05/01 07:55:27;;;;;;;5.80;5.20;;;;;;;;;;4929309;28;20035;-65
2021/05/01 07:57:56;;;;;;;7.40;5.70;;;;;;;;;;4930422;28;20535;-65
2021/05/01 08:00:21;;;;;;;9.75;5.50;;;;;;;;;;4920851;28;20029;-62
2021/05/01 08:02:47;;;;;;;7.82;5.38;;;;;;;;;;4929475;28;20458;-62
2021/05/01 08:05:14;;;;;;;8.43;5.18;;;;;;;;;;4929398;28;20382;-61
2021/05/01 08:07:45;;;;;;;7.88;5.80;;;;;;;;;;4945267;28;20142;-63
2021/05/01 08:10:12;;;;;;;8.10;6.03;;;;;;;;;;4929131;28;20332;-62
2021/05/01 08:12:37;;;;;;;9.55;6.25;;;;;;;;;;4907798;28;20582;-63
2021/05/01 08:15:06;;;;;;;12.93;5.85;;;;;;;;;;4910219;28;20035;-63
2021/05/01 08:17:32;;;;;;;9.32;6.47;;;;;;;;;;4912584;28;20170;-60
2021/05/01 08:19:58;;;;;;;9.02;6.15;;;;;;;;;;4912664;28;22121;-63
2021/05/01 08:22:25;;;;;;;6.47;4.65;;;;;;;;;;4910850;28;20039;-63
2021/05/01 08:24:52;;;;;;;7.00;6.05;;;;;;;;;;4944945;28;20041;-59
2021/05/01 08:27:17;;;;;;;11.80;6.85;;;;;;;;;;4930262;28;20023;-60
2021/05/01 08:29:48;;;;;;;10.85;7.05;;;;;;;;;;4936618;28;20040;-61
2021/05/01 08:32:17;;;;;;;10.27;7.40;;;;;;;;;;4928224;28;20050;-60
2021/05/01 08:34:45;;;;;;;12.25;7.68;;;;;;;;;;4922555;28;20027;-62
2021/05/01 08:37:11;;;;;;;10.85;7.70;;;;;;;;;;4927031;28;20051;-60
2021/05/01 08:39:38;;;;;;;14.30;8.95;;;;;;;;;;4924875;28;20034;-60
2021/05/01 08:42:03;;;;;;;13.88;8.65;;;;;;;;;;4922387;28;20039;-62
2021/05/01 08:44:29;;;;;;;12.48;9.30;;;;;;;;;;4906275;28;20108;-58
2021/05/01 08:46:55;;;;;;;13.82;8.38;;;;;;;;;;4923982;28;20669;-59
2021/05/01 08:49:23;;;;;;;13.07;8.80;;;;;;;;;;4930020;28;20035;-60
2021/05/01 08:51:48;;;;;;;15.20;9.05;;;;;;;;;;4928016;28;20113;-60
2021/05/01 08:54:14;;;;;;;11.60;8.60;;;;;;;;;;4942831;28;20057;-61
2021/05/01 08:56:41;;;;;;;13.77;9.30;;;;;;;;;;4943409;28;21026;-60
2021/05/01 08:59:08;;;;;;;12.73;8.82;;;;;;;;;;4942644;28;20948;-61
2021/05/01 09:01:37;;;;;;;12.80;8.60;;;;;;;;;;4912786;28;20092;-60
2021/05/01 09:04:06;;;;;;;12.90;8.82;;;;;;;;;;4945036;28;20027;-60
2021/05/01 09:06:31;;;;;;;15.15;9.02;;;;;;;;;;4926642;28;20629;-59
2021/05/01 09:08:58;;;;;;;14.48;9.15;;;;;;;;;;4928714;28;20034;-60
2021/05/01 09:11:39;;;;;;;17.73;9.73;;;;;;;;;;4927804;28;20042;-59
2021/05/01 09:14:15;;;;;;;13.75;9.07;;;;;;;;;;4929532;28;20043;-61
2021/05/01 09:16:41;;;;;;;11.80;8.50;;;;;;;;;;4929399;28;20130;-60
2021/05/01 09:19:06;;;;;;;14.80;9.20;;;;;;;;;;4921838;28;20652;-61
2021/05/01 09:21:32;;;;;;;13.48;8.07;;;;;;;;;;4911848;28;20039;-59
2021/05/01 09:23:58;;;;;;;12.07;8.75;;;;;;;;;;4929320;28;20047;-61
2021/05/01 09:26:34;;;;;;;12.30;8.35;;;;;;;;;;4926053;28;20123;-58
2021/05/01 09:29:02;;;;;;;13.27;8.82;;;;;;;;;;4927522;28;20031;-60
2021/05/01 09:31:41;;;;;;;17.00;9.30;;;;;;;;;;4906456;28;20042;-58
2021/05/01 09:34:07;;;;;;;15.95;9.52;;;;;;;;;;4927716;28;20027;-60
2021/05/01 09:36:36;;;;;;;13.18;8.13;;;;;;;;;;4942975;28;20510;-60
2021/05/01 09:39:05;;;;;;;12.77;8.63;;;;;;;;;;4942607;28;20050;-59
2021/05/01 09:41:35;;;;;;;12.50;8.73;;;;;;;;;;4927358;28;20043;-61
2021/05/01 09:44:15;;;;;;;11.98;7.95;;;;;;;;;;4920989;28;20039;-61
2021/05/01 09:46:42;;;;;;;10.63;7.85;;;;;;;;;;4928435;28;20069;-59
2021/05/01 09:49:17;;;;;;;10.73;8.18;;;;;;;;;;4929056;28;20562;-61
2021/05/01 09:51:53;;;;;;;11.57;7.95;;;;;;;;;;4928638;28;20031;-61
2021/05/01 09:54:20;;;;;;;12.25;7.20;;;;;;;;;;4931378;28;20073;-61
2021/05/01 09:56:46;;;;;;;12.70;7.95;;;;;;;;;;4927035;28;20134;-61
2021/05/01 09:59:12;;;;;;;11.20;7.93;;;;;;;;;;4941235;28;20031;-63
2021/05/01 10:01:41;;;;;;;14.18;7.78;;;;;;;;;;4925020;28;20735;-60
2021/05/01 10:04:17;;;;;;;12.10;7.85;;;;;;;;;;4930449;28;20078;-60
2021/05/01 10:06:46;;;;;;;11.50;7.97;;;;;;;;;;4921715;28;20742;-60
2021/05/01 10:09:21;;;;;;;11.52;7.60;;;;;;;;;;4935494;28;20027;-61
2021/05/01 10:11:47;;;;;;;11.68;7.20;;;;;;;;;;4925516;28;20070;-60
2021/05/01 10:14:16;;;;;;;8.82;6.57;;;;;;;;;;4927238;28;20065;-61
2021/05/01 10:16:52;;;;;;;11.43;6.57;;;;;;;;;;4929537;28;20035;-61
2021/05/01 10:19:18;;;;;;;8.60;6.18;;;;;;;;;;4928240;28;20037;-59
2021/05/01 10:21:47;;;;;;;9.35;6.65;;;;;;;;;;4927408;28;20031;-61
2021/05/01 10:24:16;;;;;;;9.75;6.72;;;;;;;;;;4931428;28;20030;-61
2021/05/01 10:26:44;;;;;;;7.82;6.00;;;;;;;;;;4929583;28;20042;-60
2021/05/01 10:29:25;;;;;;;6.32;5.00;;;;;;;;;;4926995;28;20368;-59
2021/05/01 10:31:55;;;;;;;6.95;5.25;;;;;;;;;;4930385;28;20042;-59
2021/05/01 10:34:23;;;;;;;6.93;5.03;;;;;;;;;;4929683;28;20177;-60
2021/05/01 10:36:49;;;;;;;7.20;5.32;;;;;;;;;;4924846;28;20031;-60
2021/05/01 10:39:16;;;;;;;6.13;4.97;;;;;;;;;;4931431;28;20027;-59
2021/05/01 10:41:52;;;;;;;8.48;5.25;;;;;;;;;;4935467;28;20043;-61
2021/05/01 10:44:18;;;;;;;6.32;4.88;;;;;;;;;;4930337;28;20106;-61
2021/05/01 10:46:44;;;;;;;9.73;5.60;;;;;;;;;;4913905;28;20098;-62
2021/05/01 10:49:10;;;;;;;6.45;5.53;;;;;;;;;;4926777;28;20062;-62
2021/05/01 10:51:37;;;;;;;16.88;6.25;;;;;;;;;;4913872;28;20031;-61
2021/05/01 10:54:13;;;;;;;7.20;5.35;;;;;;;;;;4931378;28;20042;-60
2021/05/01 10:56:44;;;;;;;7.78;5.40;;;;;;;;;;4930028;28;20672;-60
2021/05/01 10:59:13;;;;;;;3.88;3.47;;;;;;;;;;4930938;28;20035;-60
2021/05/01 11:01:47;;;;;;;4.43;3.45;;;;;;;;;;4930129;28;20027;-60
2021/05/01 11:04:33;;;;;;;4.90;3.55;;;;;;;;;;4947567;28;20525;-59
2021/05/01 11:07:06;;;;;;;5.80;3.90;;;;;;;;;;4928625;28;20054;-59
2021/05/01 11:09:44;;;;;;;5.55;4.10;;;;;;;;;;4931194;28;20146;-60
2021/05/01 11:12:14;;;;;;;6.78;4.78;;;;;;;;;;4928043;28;20035;-59
2021/05/01 11:14:45;;;;;;;9.60;5.15;;;;;;;;;;4930131;28;20031;-59
2021/05/01 11:17:13;;;;;;;7.80;4.85;;;;;;;;;;4930746;28;22176;-60
2021/05/01 11:19:42;;;;;;;8.32;5.68;;;;;;;;;;4931704;28;20038;-60
2021/05/01 11:22:11;;;;;;;7.00;4.93;;;;;;;;;;4929190;28;20525;-61
2021/05/01 11:24:37;;;;;;;8.45;5.43;;;;;;;;;;4930171;28;20052;-63
2021/05/01 11:27:03;;;;;;;8.23;5.72;;;;;;;;;;4927694;28;20495;-59
2021/05/01 11:29:30;;;;;;;6.57;5.00;;;;;;;;;;4929900;28;20045;-59
2021/05/01 11:32:00;;;;;;;6.10;4.60;;;;;;;;;;4919724;28;20030;-60
2021/05/01 11:34:29;;;;;;;7.70;4.38;;;;;;;;;;4928000;28;20042;-60
2021/05/01 11:36:56;;;;;;;4.88;3.22;;;;;;;;;;4925377;28;20034;-61
2021/05/01 11:39:24;;;;;;;6.88;3.58;;;;;;;;;;4930751;28;20043;-61
2021/05/01 11:41:51;;;;;;;5.25;3.40;;;;;;;;;;4927956;28;20035;-59
2021/05/01 11:44:17;;;;;;;4.90;3.38;;;;;;;;;;4930615;28;20046;-60
2021/05/01 11:47:08;;;;;;;3.72;3.33;;;;;;;;;;4944286;28;20035;-59
2021/05/01 11:49:34;;;;;;;3.42;3.08;;;;;;;;;;4925854;28;20047;-60
2021/05/01 11:52:03;;;;;;;5.05;3.42;;;;;;;;;;4928180;28;20027;-59
2021/05/01 11:54:46;;;;;;;4.25;3.25;;;;;;;;;;4928639;28;20062;-60
2021/05/01 11:57:18;;;;;;;4.45;3.67;;;;;;;;;;4929595;28;20062;-61
2021/05/01 11:59:44;;;;;;;4.35;3.72;;;;;;;;;;4929775;28;20043;-59
2021/05/01 12:02:11;;;;;;;5.47;4.53;;;;;;;;;;4929328;28;20640;-59
2021/05/01 12:04:55;;;;;;;4.65;4.03;;;;;;;;;;4930245;28;20039;-59
2021/05/01 12:07:25;;;;;;;4.93;4.23;;;;;;;;;;4928958;28;20038;-58
2021/05/01 12:09:52;;;;;;;4.90;4.38;;;;;;;;;;4928064;28;20369;-61
2021/05/01 12:12:22;;;;;;;5.40;4.28;;;;;;;;;;4927454;28;20031;-58
2021/05/01 12:14:48;;;;;;;9.27;5.68;;;;;;;;;;4913813;28;20123;-60
2021/05/01 12:17:15;;;;;;;7.25;5.47;;;;;;;;;;4929963;28;20986;-59
2021/05/01 12:19:42;;;;;;;7.70;5.13;;;;;;;;;;4927854;28;21348;-59
2021/05/01 12:22:24;;;;;;;5.60;4.65;;;;;;;;;;4904415;28;20043;-59
2021/05/01 12:24:50;;;;;;;6.60;4.95;;;;;;;;;;4928070;28;20111;-59
2021/05/01 12:27:39;;;;;;;7.97;5.05;;;;;;;;;;4928301;28;20534;-59
2021/05/01 12:30:04;;;;;;;10.77;5.47;;;;;;;;;;4928506;28;20525;-59
2021/05/01 12:32:30;;;;;;;8.02;5.25;;;;;;;;;;4927127;28;20035;-58
2021/05/01 12:34:58;;;;;;;6.22;4.93;;;;;;;;;;4928044;28;20667;-59
2021/05/01 12:37:27;;;;;;;11.57;5.47;;;;;;;;;;4926329;28;20039;-59
2021/05/01 12:39:53;;;;;;;9.00;5.43;;;;;;;;;;4922730;28;20685;-59
2021/05/01 12:42:34;;;;;;;7.97;4.45;;;;;;;;;;4928116;28;20110;-59
2021/05/01 12:45:00;;;;;;;4.00;3.50;;;;;;;;;;4927229;28;20149;-60
2021/05/01 12:47:34;;;;;;;6.22;3.65;;;;;;;;;;4927958;28;20391;-60
2021/05/01 12:50:12;;;;;;;5.18;3.20;;;;;;;;;;4926451;28;20654;-60
2021/05/01 12:52:39;;;;;;;4.18;3.00;;;;;;;;;;4928013;28;20032;-59
2021/05/01 12:55:05;;;;;;;6.03;3.20;;;;;;;;;;4927525;28;20039;-59
2021/05/01 12:57:34;;;;;;;3.83;3.40;;;;;;;;;;4912907;28;20055;-59
2021/05/01 13:00:18;;;;;;;4.38;3.63;;;;;;;;;;4929050;28;20023;-59
2021/05/01 13:03:13;;;;;;;3.75;3.22;;;;;;;;;;4926910;28;20217;-60
2021/05/01 13:05:43;;;;;;;5.32;3.83;;;;;;;;;;4946484;28;20031;-59
2021/05/01 13:08:19;;;;;;;4.78;3.75;;;;;;;;;;4927625;28;20042;-58
2021/05/01 13:10:47;;;;;;;6.60;4.15;;;;;;;;;;4924837;28;20070;-59
2021/05/01 13:13:14;;;;;;;5.28;4.60;;;;;;;;;;4925964;28;21455;-59
2021/05/01 13:16:01;;;;;;;5.43;3.80;;;;;;;;;;4927694;28;20031;-59
2021/05/01 13:18:26;;;;;;;4.30;3.90;;;;;;;;;;4923284;28;20410;-59
2021/05/01 13:21:03;;;;;;;6.90;3.90;;;;;;;;;;4928854;28;20039;-62
2021/05/01 13:23:44;;;;;;;4.60;3.67;;;;;;;;;;4925796;28;20138;-59
2021/05/01 13:26:16;;;;;;;5.78;4.00;;;;;;;;;;4910017;28;20038;-59
2021/05/01 13:28:52;;;;;;;8.68;3.63;;;;;;;;;;4921182;28;20043;-58
2021/05/01 13:31:18;;;;;;;5.97;3.50;;;;;;;;;;4927460;28;20534;-60
2021/05/01 13:33:44;;;;;;;4.47;3.63;;;;;;;;;;4945478;28;20061;-58
2021/05/01 13:36:12;;;;;;;4.05;3.38;;;;;;;;;;4928570;28;20058;-59
2021/05/01 13:38:43;;;;;;;5.22;2.00;;;;;;;;;;4925980;28;20182;-58
2021/05/01 13:41:16;;;;;;;3.08;2.10;;;;;;;;;;4928422;28;20046;-63
2021/05/01 13:43:47;;;;;;;5.95;2.10;;;;;;;;;;4940932;28;20682;-59
2021/05/01 13:46:18;;;;;;;3.55;2.50;;;;;;;;;;4911862;28;20047;-59
2021/05/01 13:48:44;;;;;;;2.45;1.88;;;;;;;;;;4925233;28;21057;-58
2021/05/01 13:51:10;;;;;;;4.10;2.10;;;;;;;;;;4927982;28;20035;-58
2021/05/01 13:53:36;;;;;;;2.22;1.98;;;;;;;;;;4926037;28;20446;-59
2021/05/01 13:56:05;;;;;;;3.00;1.98;;;;;;;;;;4929195;28;20056;-59
2021/05/01 13:58:33;;;;;;;2.47;2.20;;;;;;;;;;4928279;28;20042;-58
2021/05/01 14:00:59;;;;;;;3.67;2.90;;;;;;;;;;4922927;28;20058;-59
2021/05/01 14:03:34;;;;;;;3.17;2.47;;;;;;;;;;4924307;28;20035;-60
2021/05/01 14:06:00;;;;;;;2.60;2.10;;;;;;;;;;4925503;28;20832;-60
2021/05/01 14:08:26;;;;;;;3.00;2.30;;;;;;;;;;4943630;28;20290;-59
2021/05/01 14:10:52;;;;;;;3.10;2.08;;;;;;;;;;4943836;28;20091;-60
2021/05/01 14:13:21;;;;;;;3.85;2.22;;;;;;;;;;4927301;28;20459;-60
2021/05/01 14:15:48;;;;;;;5.50;2.50;;;;;;;;;;4927750;28;20044;-61
2021/05/01 14:18:15;;;;;;;1.95;1.63;;;;;;;;;;4928377;28;20173;-60
2021/05/01 14:20:44;;;;;;;3.10;2.08;;;;;;;;;;4936107;28;20110;-60
2021/05/01 14:23:13;;;;;;;2.38;2.10;;;;;;;;;;4920219;28;21637;-61
2021/05/01 14:25:43;;;;;;;2.28;1.67;;;;;;;;;;4927723;28;20118;-59
2021/05/01 14:28:13;;;;;;;4.43;2.30;;;;;;;;;;4943941;28;20027;-60
2021/05/01 14:33:05;;;;;;;2.90;2.47;;;;;;;;;;4927295;28;20042;-61
2021/05/01 14:35:34;;;;;;;2.47;2.28;;;;;;;;;;4928422;28;20038;-60
2021/05/01 14:38:00;;;;;;;2.92;2.63;;;;;;;;;;4926924;28;20039;-59
2021/05/01 14:40:25;;;;;;;2.40;2.20;;;;;;;;;;4929853;28;22067;-60